< Typhoon 196523 1965 Season Typhoon 196525 >
Typhoon 196524 (TRIX)
General InformationTrack Information on Google Maps || NewsDisaster Info.ResourceGoogle EarthGE AnimationAtom FeedGeoJSON
Detalied Best Track (Time Zone = UTC)
Year Month Day Hour Lat. Long. Pressure (hPa) Wind (kt) Class Image Chart
1965 9 7 18 11.0 143.0 1006 0 2 -- Chart
1965 9 8 00 10.9 142.0 1006 0 2 -- Chart
1965 9 8 06 11.0 141.2 1006 0 2 -- Chart
1965 9 8 12 11.2 140.4 1006 0 2 -- Chart
1965 9 8 18 11.5 139.6 1006 0 2 -- Chart
1965 9 9 00 12.1 139.1 1006 0 2 -- Chart
1965 9 9 06 13.0 139.0 1002 0 2 -- Chart
1965 9 9 12 14.0 139.1 1004 0 2 -- Chart
1965 9 9 18 14.6 138.8 1004 0 2 -- Chart
1965 9 10 00 15.0 138.1 1004 0 2 -- Chart
1965 9 10 06 15.5 137.9 1000 0 2 -- Chart
1965 9 10 12 16.1 138.3 1000 0 2 -- Chart
1965 9 10 18 16.5 138.0 998 0 2 -- Chart
1965 9 11 00 16.9 137.6 995 0 9 -- Chart
1965 9 11 06 17.0 137.0 980 0 9 -- Chart
1965 9 11 12 17.3 136.8 980 0 9 -- Chart
1965 9 11 18 17.8 136.9 975 0 9 -- Chart
1965 9 12 00 18.5 136.7 970 0 9 -- Chart
1965 9 12 06 19.3 136.0 970 0 9 -- Chart
1965 9 12 12 19.5 135.4 970 0 9 -- Chart
1965 9 12 18 19.5 134.6 970 0 9 -- Chart
1965 9 13 00 20.0 133.8 965 0 9 -- Chart
1965 9 13 06 21.0 132.7 960 0 9 -- Chart
1965 9 13 12 21.3 132.1 960 0 9 -- Chart
1965 9 13 18 21.9 131.5 960 0 9 -- Chart
1965 9 14 00 22.2 130.8 950 0 9 -- Chart
1965 9 14 06 22.3 130.2 950 0 9 -- Chart
1965 9 14 12 22.5 129.6 950 0 9 -- Chart
1965 9 14 18 22.6 129.0 940 0 9 -- Chart
1965 9 15 00 22.7 128.5 935 0 9 -- Chart
1965 9 15 06 23.0 128.2 935 0 9 -- Chart
1965 9 15 12 23.3 128.5 940 0 9 -- Chart
1965 9 15 18 24.0 129.0 940 0 9 -- Chart
1965 9 16 00 24.5 129.5 945 0 9 -- Chart
1965 9 16 06 25.5 130.3 945 0 9 -- Chart
1965 9 16 12 26.6 131.3 945 0 9 -- Chart
1965 9 16 18 28.0 132.2 945 0 9 -- Chart
1965 9 17 00 29.8 133.2 950 0 9 -- Chart
1965 9 17 06 32.0 135.0 955 0 9 -- Chart
1965 9 17 12 34.4 136.9 955 0 9 -- Chart
1965 9 17 18 38.4 139.5 968 0 9 -- Chart
1965 9 18 00 41.9 142.2 972 0 9 -- Chart
1965 9 18 06 43.4 145.2 977 0 6 -- Chart
1965 9 18 12 46.5 147.6 978 0 6 -- Chart
1965 9 18 18 49.0 146.5 974 0 6 -- Chart
1965 9 19 00 50.0 146.0 974 0 6 -- Chart
1965 9 19 06 50.8 146.0 980 0 6 -- Chart
1965 9 19 12 51.5 146.1 980 0 6 -- Chart
1965 9 19 18 52.2 146.3 980 0 6 -- Chart
1965 9 20 00 52.8 146.9 980 0 6 -- Chart
1965 9 20 06 52.7 148.0 980 0 6 -- Chart
1965 9 20 12 52.0 149.0 980 0 6 -- Chart
1965 9 20 18 51.7 150.0 988 0 6 -- Chart
1965 9 21 00 51.6 151.1 990 0 6 -- Chart
1965 9 21 06 51.3 152.4 992 0 6 -- Chart
1965 9 21 12 51.0 153.6 994 0 6 -- Chart
1965 9 21 18 50.4 154.7 996 0 6 -- Chart
1965 9 22 00 50.1 157.6 1000 0 6 -- Chart
1965 9 22 06 49.7 161.1 1002 0 6 -- Chart
1965 9 22 12 48.0 164.0 1002 0 6 -- Chart
1965 9 22 18 46.7 168.2 1004 0 6 -- Chart
1965 9 23 00 45.8 174.0 1005 0 6 -- Chart
1965 9 23 06 44.7 178.1 1004 0 6 -- Chart
1965 9 23 12 44.3 181.3 1002 0 6 -- Chart
Japan Meteorological Agency Best Track Data | Correction Date : 1991-07-16
< Typhoon 196523 1965 Season Typhoon 196525 >

Help